sensor_id;sensor_type;location;lat;lon;timestamp;pressure;altitude;pressure_sealevel;temperature;humidity
30021;BME280;16861;52.294;7.760;2023-09-19T00:00:46;98842.75;;;18.97;66.00
30021;BME280;16861;52.294;7.760;2023-09-19T00:03:14;98848.75;;;18.99;65.85
30021;BME280;16861;52.294;7.760;2023-09-19T00:05:41;98846.75;;;19.01;65.72
30021;BME280;16861;52.294;7.760;2023-09-19T00:08:12;98855.44;;;19.03;65.96
30021;BME280;16861;52.294;7.760;2023-09-19T00:10:42;98853.44;;;19.05;65.63
30021;BME280;16861;52.294;7.760;2023-09-19T00:13:10;98852.44;;;19.06;65.89
30021;BME280;16861;52.294;7.760;2023-09-19T00:15:45;98858.31;;;19.10;65.70
30021;BME280;16861;52.294;7.760;2023-09-19T00:18:17;98859.81;;;19.12;65.81
30021;BME280;16861;52.294;7.760;2023-09-19T00:20:46;98858.63;;;19.15;65.58
30021;BME280;16861;52.294;7.760;2023-09-19T00:23:18;98863.81;;;19.17;65.66
30021;BME280;16861;52.294;7.760;2023-09-19T00:25:46;98878.66;;;19.19;65.54
30021;BME280;16861;52.294;7.760;2023-09-19T00:28:12;98867.97;;;19.19;65.18
30021;BME280;16861;52.294;7.760;2023-09-19T00:30:43;98885.81;;;19.19;65.18
30021;BME280;16861;52.294;7.760;2023-09-19T00:33:11;98871.47;;;19.20;65.04
30021;BME280;16861;52.294;7.760;2023-09-19T00:38:15;98873.47;;;19.18;64.80
30021;BME280;16861;52.294;7.760;2023-09-19T00:40:47;98879.81;;;19.17;64.58
30021;BME280;16861;52.294;7.760;2023-09-19T00:43:14;98885.31;;;19.15;64.81
30021;BME280;16861;52.294;7.760;2023-09-19T00:45:46;98889.31;;;19.11;64.22
30021;BME280;16861;52.294;7.760;2023-09-19T00:48:15;98889.47;;;19.09;64.57
30021;BME280;16861;52.294;7.760;2023-09-19T00:50:44;98893.94;;;19.09;64.51
30021;BME280;16861;52.294;7.760;2023-09-19T00:53:20;98897.09;;;19.04;63.99
30021;BME280;16861;52.294;7.760;2023-09-19T00:55:48;98897.78;;;19.06;64.32
30021;BME280;16861;52.294;7.760;2023-09-19T00:58:17;98889.09;;;19.04;64.52
30021;BME280;16861;52.294;7.760;2023-09-19T01:00:44;98899.94;;;19.02;64.49
30021;BME280;16861;52.294;7.760;2023-09-19T01:03:11;98909.75;;;19.02;64.27
30021;BME280;16861;52.294;7.760;2023-09-19T01:05:40;98909.09;;;19.00;63.94
30021;BME280;16861;52.294;7.760;2023-09-19T01:08:06;98905.56;;;18.99;64.11
30021;BME280;16861;52.294;7.760;2023-09-19T01:10:33;98913.06;;;18.96;63.92
30021;BME280;16861;52.294;7.760;2023-09-19T01:13:18;98911.03;;;18.89;63.20
30021;BME280;16861;52.294;7.760;2023-09-19T01:15:59;98918.38;;;18.87;63.34
30021;BME280;16861;52.294;7.760;2023-09-19T01:18:42;98923.06;;;18.85;63.46
30021;BME280;16861;52.294;7.760;2023-09-19T01:21:26;98931.03;;;18.77;62.91
30021;BME280;16861;52.294;7.760;2023-09-19T01:29:50;98933.66;;;18.69;63.65
30021;BME280;16861;52.294;7.760;2023-09-19T01:32:18;98935.13;;;18.63;63.40
30021;BME280;16861;52.294;7.760;2023-09-19T01:34:51;98931.13;;;18.59;63.48
30021;BME280;16861;52.294;7.760;2023-09-19T01:37:21;98945.75;;;18.55;63.94
30021;BME280;16861;52.294;7.760;2023-09-19T01:40:13;98957.06;;;18.48;63.23
30021;BME280;16861;52.294;7.760;2023-09-19T01:43:04;98953.56;;;18.48;63.86
30021;BME280;16861;52.294;7.760;2023-09-19T01:46:09;98958.53;;;18.43;63.82
30021;BME280;16861;52.294;7.760;2023-09-19T01:51:26;98950.00;;;18.39;63.66
30021;BME280;16861;52.294;7.760;2023-09-19T01:54:03;98957.16;;;18.39;64.03
30021;BME280;16861;52.294;7.760;2023-09-19T01:56:50;98953.00;;;18.36;63.89
30021;BME280;16861;52.294;7.760;2023-09-19T01:59:21;98960.66;;;18.39;64.07
30021;BME280;16861;52.294;7.760;2023-09-19T02:01:52;98953.50;;;18.40;64.24
30021;BME280;16861;52.294;7.760;2023-09-19T02:04:19;98948.19;;;18.40;64.71
30021;BME280;16861;52.294;7.760;2023-09-19T02:06:46;98958.84;;;18.40;64.38
30021;BME280;16861;52.294;7.760;2023-09-19T02:09:14;98954.34;;;18.40;64.36
30021;BME280;16861;52.294;7.760;2023-09-19T02:11:41;98955.16;;;18.41;64.51
30021;BME280;16861;52.294;7.760;2023-09-19T02:14:08;98961.03;;;18.44;64.50
30021;BME280;16861;52.294;7.760;2023-09-19T02:16:35;98958.53;;;18.43;64.34
30021;BME280;16861;52.294;7.760;2023-09-19T02:19:02;98954.88;;;18.44;63.93
30021;BME280;16861;52.294;7.760;2023-09-19T02:21:32;98948.03;;;18.41;64.25
30021;BME280;16861;52.294;7.760;2023-09-19T02:23:58;98956.84;;;18.42;64.23
30021;BME280;16861;52.294;7.760;2023-09-19T02:26:25;98961.34;;;18.41;64.22
30021;BME280;16861;52.294;7.760;2023-09-19T02:28:53;98965.81;;;18.41;64.04
30021;BME280;16861;52.294;7.760;2023-09-19T02:31:20;98960.50;;;18.41;64.19
30021;BME280;16861;52.294;7.760;2023-09-19T02:33:47;98962.16;;;18.42;64.01
30021;BME280;16861;52.294;7.760;2023-09-19T02:36:13;98966.84;;;18.40;63.93
30021;BME280;16861;52.294;7.760;2023-09-19T02:38:43;98967.84;;;18.39;63.79
30021;BME280;16861;52.294;7.760;2023-09-19T02:41:10;98976.81;;;18.38;63.76
30021;BME280;16861;52.294;7.760;2023-09-19T02:43:36;98975.13;;;18.36;64.18
30021;BME280;16861;52.294;7.760;2023-09-19T02:46:03;98981.63;;;18.34;64.03
30021;BME280;16861;52.294;7.760;2023-09-19T02:48:30;98985.44;;;18.31;63.95
30021;BME280;16861;52.294;7.760;2023-09-19T02:50:58;98985.44;;;18.31;64.07
30021;BME280;16861;52.294;7.760;2023-09-19T02:53:24;98979.59;;;18.28;63.76
30021;BME280;16861;52.294;7.760;2023-09-19T02:55:51;98976.22;;;18.26;63.73
30021;BME280;16861;52.294;7.760;2023-09-19T02:58:18;98981.91;;;18.22;63.63
30021;BME280;16861;52.294;7.760;2023-09-19T03:00:46;98981.34;;;18.19;63.66
30021;BME280;16861;52.294;7.760;2023-09-19T03:03:16;98982.66;;;18.15;63.47
30021;BME280;16861;52.294;7.760;2023-09-19T03:05:43;98997.28;;;18.10;63.70
30021;BME280;16861;52.294;7.760;2023-09-19T03:08:15;98985.22;;;18.06;63.84
30021;BME280;16861;52.294;7.760;2023-09-19T03:10:46;98982.19;;;18.01;63.27
30021;BME280;16861;52.294;7.760;2023-09-19T03:13:14;98988.81;;;17.97;63.60
30021;BME280;16861;52.294;7.760;2023-09-19T03:15:42;98984.78;;;17.93;63.74
30021;BME280;16861;52.294;7.760;2023-09-19T03:18:10;98987.78;;;17.90;64.32
30021;BME280;16861;52.294;7.760;2023-09-19T03:20:37;98992.72;;;17.84;63.85
30021;BME280;16861;52.294;7.760;2023-09-19T03:23:04;98998.38;;;17.81;64.17
30021;BME280;16861;52.294;7.760;2023-09-19T03:25:35;99002.31;;;17.77;64.56
30021;BME280;16861;52.294;7.760;2023-09-19T03:28:03;99001.47;;;17.77;64.50
30021;BME280;16861;52.294;7.760;2023-09-19T03:30:32;99010.44;;;17.76;64.52
30021;BME280;16861;52.294;7.760;2023-09-19T03:33:00;99013.25;;;17.74;64.72
30021;BME280;16861;52.294;7.760;2023-09-19T03:35:27;99007.94;;;17.74;64.81
30021;BME280;16861;52.294;7.760;2023-09-19T03:37:53;99007.09;;;17.74;65.18
30021;BME280;16861;52.294;7.760;2023-09-19T03:40:20;98999.97;;;17.74;64.93
30021;BME280;16861;52.294;7.760;2023-09-19T03:42:48;98996.28;;;17.75;65.16
30021;BME280;16861;52.294;7.760;2023-09-19T03:45:14;99004.28;;;17.75;64.85
30021;BME280;16861;52.294;7.760;2023-09-19T03:47:42;99001.47;;;17.77;64.98
30021;BME280;16861;52.294;7.760;2023-09-19T03:50:09;98990.97;;;17.75;64.64
30021;BME280;16861;52.294;7.760;2023-09-19T03:52:41;98993.63;;;17.75;64.91
30021;BME280;16861;52.294;7.760;2023-09-19T03:55:08;98996.28;;;17.75;64.76
30021;BME280;16861;52.294;7.760;2023-09-19T03:57:36;99000.09;;;17.73;64.49
30021;BME280;16861;52.294;7.760;2023-09-19T04:00:04;99012.75;;;17.70;64.66
30021;BME280;16861;52.294;7.760;2023-09-19T04:02:40;99020.88;;;17.69;64.65
30021;BME280;16861;52.294;7.760;2023-09-19T04:05:07;99023.69;;;17.67;64.49
30021;BME280;16861;52.294;7.760;2023-09-19T04:07:34;99010.53;;;17.66;64.50
30021;BME280;16861;52.294;7.760;2023-09-19T04:10:01;99020.50;;;17.64;64.47
30021;BME280;16861;52.294;7.760;2023-09-19T04:12:28;99019.13;;;17.60;64.17
30021;BME280;16861;52.294;7.760;2023-09-19T04:14:54;99023.75;;;17.57;64.35
30021;BME280;16861;52.294;7.760;2023-09-19T04:17:20;99013.41;;;17.54;64.34
30021;BME280;16861;52.294;7.760;2023-09-19T04:19:47;99016.25;;;17.53;64.10
30021;BME280;16861;52.294;7.760;2023-09-19T04:22:14;99018.06;;;17.52;64.38
30021;BME280;16861;52.294;7.760;2023-09-19T04:24:40;99012.88;;;17.51;63.86
30021;BME280;16861;52.294;7.760;2023-09-19T04:27:07;99009.69;;;17.47;64.28
30021;BME280;16861;52.294;7.760;2023-09-19T04:29:33;99018.81;;;17.44;64.13
30021;BME280;16861;52.294;7.760;2023-09-19T04:32:00;99033.94;;;17.44;63.71
30021;BME280;16861;52.294;7.760;2023-09-19T04:34:26;99033.53;;;17.39;64.13
30021;BME280;16861;52.294;7.760;2023-09-19T04:36:53;99026.69;;;17.36;63.95
30021;BME280;16861;52.294;7.760;2023-09-19T04:39:20;99027.00;;;17.33;63.79
30021;BME280;16861;52.294;7.760;2023-09-19T04:41:47;99026.47;;;17.29;63.83
30021;BME280;16861;52.294;7.760;2023-09-19T04:44:14;99017.78;;;17.27;64.14
30021;BME280;16861;52.294;7.760;2023-09-19T04:46:42;99016.41;;;17.23;63.95
30021;BME280;16861;52.294;7.760;2023-09-19T04:49:09;99026.50;;;17.19;63.97
30021;BME280;16861;52.294;7.760;2023-09-19T04:51:35;99024.16;;;17.16;63.85
30021;BME280;16861;52.294;7.760;2023-09-19T04:54:03;99034.94;;;17.15;63.67
30021;BME280;16861;52.294;7.760;2023-09-19T04:56:30;99043.22;;;17.12;63.92
30021;BME280;16861;52.294;7.760;2023-09-19T04:58:56;99048.69;;;17.10;64.04
30021;BME280;16861;52.294;7.760;2023-09-19T05:01:25;99060.59;;;17.06;63.77
30021;BME280;16861;52.294;7.760;2023-09-19T05:03:51;99069.69;;;17.03;63.66
30021;BME280;16861;52.294;7.760;2023-09-19T05:06:21;99069.97;;;17.00;63.40
30021;BME280;16861;52.294;7.760;2023-09-19T05:08:50;99081.72;;;16.98;63.44
30021;BME280;16861;52.294;7.760;2023-09-19T05:11:18;99075.88;;;16.94;63.43
30021;BME280;16861;52.294;7.760;2023-09-19T05:13:46;99084.81;;;16.93;63.56
30021;BME280;16861;52.294;7.760;2023-09-19T05:16:12;99090.44;;;16.90;63.62
30021;BME280;16861;52.294;7.760;2023-09-19T05:18:39;99093.22;;;16.88;63.31
30021;BME280;16861;52.294;7.760;2023-09-19T05:21:06;99084.72;;;16.85;63.36
30021;BME280;16861;52.294;7.760;2023-09-19T05:23:32;99091.00;;;16.84;63.28
30021;BME280;16861;52.294;7.760;2023-09-19T05:25:59;99083.34;;;16.80;63.18
30021;BME280;16861;52.294;7.760;2023-09-19T05:28:26;99092.41;;;16.78;63.07
30021;BME280;16861;52.294;7.760;2023-09-19T05:30:53;99096.19;;;16.75;63.19
30021;BME280;16861;52.294;7.760;2023-09-19T05:33:19;99089.50;;;16.71;63.21
30021;BME280;16861;52.294;7.760;2023-09-19T05:35:49;99095.94;;;16.68;62.68
30021;BME280;16861;52.294;7.760;2023-09-19T05:38:16;99095.13;;;16.68;63.16
30021;BME280;16861;52.294;7.760;2023-09-19T05:40:45;99098.06;;;16.65;63.01
30021;BME280;16861;52.294;7.760;2023-09-19T05:43:13;99097.38;;;16.63;62.92
30021;BME280;16861;52.294;7.760;2023-09-19T05:45:41;99095.66;;;16.62;63.10
30021;BME280;16861;52.294;7.760;2023-09-19T05:48:16;99090.81;;;16.57;62.60
30021;BME280;16861;52.294;7.760;2023-09-19T05:50:43;99087.03;;;16.60;63.02
30021;BME280;16861;52.294;7.760;2023-09-19T05:53:13;99090.66;;;16.59;62.73
30021;BME280;16861;52.294;7.760;2023-09-19T05:55:41;99092.59;;;16.57;62.93
30021;BME280;16861;52.294;7.760;2023-09-19T05:58:08;99085.63;;;16.56;63.06
30021;BME280;16861;52.294;7.760;2023-09-19T06:00:36;99091.94;;;16.54;62.80
30021;BME280;16861;52.294;7.760;2023-09-19T06:03:05;99097.25;;;16.54;62.74
30021;BME280;16861;52.294;7.760;2023-09-19T06:05:32;99102.56;;;16.54;63.03
30021;BME280;16861;52.294;7.760;2023-09-19T06:07:59;99094.59;;;16.54;62.80
30021;BME280;16861;52.294;7.760;2023-09-19T06:10:30;99107.88;;;16.54;62.74
30021;BME280;16861;52.294;7.760;2023-09-19T06:12:58;99118.50;;;16.54;62.68
30021;BME280;16861;52.294;7.760;2023-09-19T06:15:25;99114.84;;;16.56;62.76
30021;BME280;16861;52.294;7.760;2023-09-19T06:17:54;99112.88;;;16.58;62.83
30021;BME280;16861;52.294;7.760;2023-09-19T06:20:26;99103.78;;;16.60;62.92
30021;BME280;16861;52.294;7.760;2023-09-19T06:22:54;99107.16;;;16.62;62.84
30021;BME280;16861;52.294;7.760;2023-09-19T06:25:21;99090.06;;;16.65;62.85
30021;BME280;16861;52.294;7.760;2023-09-19T06:27:50;99092.47;;;16.68;62.81
30021;BME280;16861;52.294;7.760;2023-09-19T06:30:22;99093.84;;;16.72;62.68
30021;BME280;16861;52.294;7.760;2023-09-19T06:33:00;99086.56;;;16.74;62.04
30021;BME280;16861;52.294;7.760;2023-09-19T06:35:28;99098.28;;;16.82;62.69
30021;BME280;16861;52.294;7.760;2023-09-19T06:37:56;99085.41;;;16.87;62.70
30021;BME280;16861;52.294;7.760;2023-09-19T06:40:24;99100.06;;;16.91;62.37
30021;BME280;16861;52.294;7.760;2023-09-19T06:42:51;99116.44;;;16.96;62.35
30021;BME280;16861;52.294;7.760;2023-09-19T06:45:22;99123.13;;;17.00;62.33
30021;BME280;16861;52.294;7.760;2023-09-19T06:47:50;99119.34;;;17.03;62.23
30021;BME280;16861;52.294;7.760;2023-09-19T06:50:19;99120.91;;;17.05;61.99
30021;BME280;16861;52.294;7.760;2023-09-19T06:52:49;99127.91;;;17.06;61.92
30021;BME280;16861;52.294;7.760;2023-09-19T06:55:18;99140.09;;;17.09;61.92
30021;BME280;16861;52.294;7.760;2023-09-19T06:57:47;99131.25;;;17.09;61.80
30021;BME280;16861;52.294;7.760;2023-09-19T07:00:15;99142.75;;;17.09;61.54
30021;BME280;16861;52.294;7.760;2023-09-19T07:02:42;99139.09;;;17.10;61.60
30021;BME280;16861;52.294;7.760;2023-09-19T07:05:09;99142.56;;;17.11;61.58
30021;BME280;16861;52.294;7.760;2023-09-19T07:07:36;99147.88;;;17.11;61.65
30021;BME280;16861;52.294;7.760;2023-09-19T07:10:03;99154.19;;;17.10;61.35
30021;BME280;16861;52.294;7.760;2023-09-19T07:12:32;99149.88;;;17.09;61.60
30021;BME280;16861;52.294;7.760;2023-09-19T07:14:59;99143.69;;;17.08;61.43
30021;BME280;16861;52.294;7.760;2023-09-19T07:17:25;99149.88;;;17.09;61.48
30021;BME280;16861;52.294;7.760;2023-09-19T07:19:52;99145.41;;;17.09;61.69
30021;BME280;16861;52.294;7.760;2023-09-19T07:22:18;99156.72;;;17.11;61.76
30021;BME280;16861;52.294;7.760;2023-09-19T07:24:45;99152.25;;;17.12;61.87
30021;BME280;16861;52.294;7.760;2023-09-19T07:27:11;99150.13;;;17.15;62.19
30021;BME280;16861;52.294;7.760;2023-09-19T07:29:38;99138.22;;;17.19;62.47
30021;BME280;16861;52.294;7.760;2023-09-19T07:32:05;99140.44;;;17.24;62.32
30021;BME280;16861;52.294;7.760;2023-09-19T07:34:33;99135.53;;;17.29;62.15
30021;BME280;16861;52.294;7.760;2023-09-19T07:37:00;99127.78;;;17.36;62.19
30021;BME280;16861;52.294;7.760;2023-09-19T07:39:26;99136.16;;;17.41;62.24
30021;BME280;16861;52.294;7.760;2023-09-19T07:41:53;99141.88;;;17.47;61.89
30021;BME280;16861;52.294;7.760;2023-09-19T07:44:20;99141.44;;;17.51;62.01
30021;BME280;16861;52.294;7.760;2023-09-19T07:46:47;99138.19;;;17.57;62.31
30021;BME280;16861;52.294;7.760;2023-09-19T07:49:17;99148.25;;;17.64;62.00
30021;BME280;16861;52.294;7.760;2023-09-19T07:51:44;99144.97;;;17.70;62.02
30021;BME280;16861;52.294;7.760;2023-09-19T07:54:13;99149.53;;;17.78;61.96
30021;BME280;16861;52.294;7.760;2023-09-19T07:56:41;99154.13;;;17.86;62.01
30021;BME280;16861;52.294;7.760;2023-09-19T07:59:07;99158.19;;;17.90;61.70
30021;BME280;16861;52.294;7.760;2023-09-19T08:01:34;99168.38;;;17.94;61.41
30021;BME280;16861;52.294;7.760;2023-09-19T08:04:02;99156.28;;;18.00;61.63
30021;BME280;16861;52.294;7.760;2023-09-19T08:06:28;99158.50;;;18.05;61.14
30021;BME280;16861;52.294;7.760;2023-09-19T08:08:56;99159.06;;;18.08;61.27
30021;BME280;16861;52.294;7.760;2023-09-19T08:11:23;99171.91;;;18.13;61.26
30021;BME280;16861;52.294;7.760;2023-09-19T08:13:50;99164.47;;;18.17;61.27
30021;BME280;16861;52.294;7.760;2023-09-19T08:16:17;99167.66;;;18.20;61.43
30021;BME280;16861;52.294;7.760;2023-09-19T08:18:49;99154.84;;;18.24;61.49
30021;BME280;16861;52.294;7.760;2023-09-19T08:21:19;99174.88;;;18.28;61.36
30021;BME280;16861;52.294;7.760;2023-09-19T08:23:46;99168.25;;;18.32;61.70
30021;BME280;16861;52.294;7.760;2023-09-19T08:26:12;99167.81;;;18.37;61.63
30021;BME280;16861;52.294;7.760;2023-09-19T08:28:39;99170.00;;;18.42;61.42
30021;BME280;16861;52.294;7.760;2023-09-19T08:31:08;99171.06;;;18.49;61.56
30021;BME280;16861;52.294;7.760;2023-09-19T08:33:36;99177.63;;;18.55;61.13
30021;BME280;16861;52.294;7.760;2023-09-19T08:36:04;99171.84;;;18.59;61.39
30021;BME280;16861;52.294;7.760;2023-09-19T08:38:33;99169.53;;;18.65;61.11
30021;BME280;16861;52.294;7.760;2023-09-19T08:41:00;99175.25;;;18.70;60.77
30021;BME280;16861;52.294;7.760;2023-09-19T08:43:26;99181.09;;;18.73;61.17
30021;BME280;16861;52.294;7.760;2023-09-19T08:46:10;99184.59;;;18.74;59.74
30021;BME280;16861;52.294;7.760;2023-09-19T08:49:02;99178.78;;;18.79;59.74
30021;BME280;16861;52.294;7.760;2023-09-19T08:51:43;99178.03;;;18.86;59.92
30021;BME280;16861;52.294;7.760;2023-09-19T08:54:22;99175.72;;;18.92;59.54
30021;BME280;16861;52.294;7.760;2023-09-19T08:56:53;99174.94;;;18.99;60.31
30021;BME280;16861;52.294;7.760;2023-09-19T08:59:22;99184.31;;;19.04;60.65
30021;BME280;16861;52.294;7.760;2023-09-19T09:01:53;99186.41;;;19.10;60.47
30021;BME280;16861;52.294;7.760;2023-09-19T09:04:22;99187.56;;;19.16;60.16
30021;BME280;16861;52.294;7.760;2023-09-19T09:06:50;99204.94;;;19.20;59.84
30021;BME280;16861;52.294;7.760;2023-09-19T09:09:20;99189.47;;;19.23;59.63
30021;BME280;16861;52.294;7.760;2023-09-19T09:11:48;99207.66;;;19.28;59.86
30021;BME280;16861;52.294;7.760;2023-09-19T09:14:17;99184.34;;;19.30;59.61
30021;BME280;16861;52.294;7.760;2023-09-19T09:16:44;99187.66;;;19.32;59.46
30021;BME280;16861;52.294;7.760;2023-09-19T09:19:11;99190.88;;;19.36;59.31
30021;BME280;16861;52.294;7.760;2023-09-19T09:21:40;99184.38;;;19.38;59.44
30021;BME280;16861;52.294;7.760;2023-09-19T09:24:29;99181.72;;;19.38;58.51
30021;BME280;16861;52.294;7.760;2023-09-19T09:26:57;99184.94;;;19.50;59.34
30021;BME280;16861;52.294;7.760;2023-09-19T09:32:36;99178.28;;;19.55;57.00
30021;BME280;16861;52.294;7.760;2023-09-19T09:35:08;99187.31;;;19.62;57.30
30021;BME280;16861;52.294;7.760;2023-09-19T09:37:42;99191.31;;;19.66;58.25
30021;BME280;16861;52.294;7.760;2023-09-19T09:40:09;99180.16;;;19.71;58.52
30021;BME280;16861;52.294;7.760;2023-09-19T09:42:39;99177.84;;;19.76;58.71
30021;BME280;16861;52.294;7.760;2023-09-19T09:45:12;99170.19;;;19.81;57.47
30021;BME280;16861;52.294;7.760;2023-09-19T09:53:23;99174.47;;;20.09;57.37
30021;BME280;16861;52.294;7.760;2023-09-19T09:56:05;99176.66;;;20.22;58.23
30021;BME280;16861;52.294;7.760;2023-09-19T09:58:51;99192.88;;;20.28;56.03
30021;BME280;16861;52.294;7.760;2023-09-19T10:01:22;99184.53;;;20.40;57.80
30021;BME280;16861;52.294;7.760;2023-09-19T10:03:59;99182.00;;;20.47;56.25
30021;BME280;16861;52.294;7.760;2023-09-19T10:06:40;99180.34;;;20.54;56.33
30021;BME280;16861;52.294;7.760;2023-09-19T10:09:13;99171.16;;;20.65;57.30
30021;BME280;16861;52.294;7.760;2023-09-19T10:11:47;99174.84;;;20.72;56.59
30021;BME280;16861;52.294;7.760;2023-09-19T10:14:25;99181.16;;;20.79;56.18
30021;BME280;16861;52.294;7.760;2023-09-19T10:16:56;99174.88;;;20.89;57.05
30021;BME280;16861;52.294;7.760;2023-09-19T10:19:36;99163.63;;;20.93;54.75
30021;BME280;16861;52.294;7.760;2023-09-19T10:22:04;99166.31;;;21.02;55.60
30021;BME280;16861;52.294;7.760;2023-09-19T10:24:33;99165.97;;;21.05;54.72
30021;BME280;16861;52.294;7.760;2023-09-19T10:27:14;99173.63;;;21.08;55.25
30021;BME280;16861;52.294;7.760;2023-09-19T10:29:48;99181.66;;;21.08;54.65
30021;BME280;16861;52.294;7.760;2023-09-19T10:32:18;99180.50;;;21.11;55.45
30021;BME280;16861;52.294;7.760;2023-09-19T10:34:48;99175.97;;;21.11;54.85
30021;BME280;16861;52.294;7.760;2023-09-19T10:37:20;99174.81;;;21.14;52.67
30021;BME280;16861;52.294;7.760;2023-09-19T10:39:48;99165.44;;;21.18;54.75
30021;BME280;16861;52.294;7.760;2023-09-19T10:42:19;99168.59;;;21.30;55.17
30021;BME280;16861;52.294;7.760;2023-09-19T10:44:52;99162.53;;;21.36;55.51
30021;BME280;16861;52.294;7.760;2023-09-19T10:47:21;99164.84;;;21.47;56.06
30021;BME280;16861;52.294;7.760;2023-09-19T10:49:51;99167.97;;;21.59;55.74
30021;BME280;16861;52.294;7.760;2023-09-19T10:52:21;99165.72;;;21.71;54.77
30021;BME280;16861;52.294;7.760;2023-09-19T10:54:51;99186.66;;;21.84;54.88
30021;BME280;16861;52.294;7.760;2023-09-19T10:57:24;99174.03;;;21.93;53.72
30021;BME280;16861;52.294;7.760;2023-09-19T11:00:04;99183.22;;;21.99;52.18
30021;BME280;16861;52.294;7.760;2023-09-19T11:03:23;99182.31;;;22.07;53.84
30021;BME280;16861;52.294;7.760;2023-09-19T11:09:03;99160.72;;;22.32;54.38
30021;BME280;16861;52.294;7.760;2023-09-19T11:30:46;99162.63;;;22.85;51.47
30021;BME280;16861;52.294;7.760;2023-09-19T11:33:20;99165.41;;;22.76;50.60
30021;BME280;16861;52.294;7.760;2023-09-19T11:35:59;99169.63;;;22.71;50.30
30021;BME280;16861;52.294;7.760;2023-09-19T11:49:19;99153.47;;;22.94;50.89
30021;BME280;16861;52.294;7.760;2023-09-19T11:51:52;99142.38;;;22.97;49.90
30021;BME280;16861;52.294;7.760;2023-09-19T11:54:20;99152.09;;;22.98;51.11
30021;BME280;16861;52.294;7.760;2023-09-19T11:56:52;99156.00;;;22.96;50.43
30021;BME280;16861;52.294;7.760;2023-09-19T11:59:21;99150.44;;;22.97;50.55
30021;BME280;16861;52.294;7.760;2023-09-19T12:01:52;99155.25;;;23.02;50.15
30021;BME280;16861;52.294;7.760;2023-09-19T12:04:38;99143.03;;;23.14;50.30
30021;BME280;16861;52.294;7.760;2023-09-19T12:07:10;99142.59;;;23.41;51.37
30021;BME280;16861;52.294;7.760;2023-09-19T12:09:42;99142.44;;;23.79;52.89
30021;BME280;16861;52.294;7.760;2023-09-19T12:12:19;99137.13;;;24.23;51.20
30021;BME280;16861;52.294;7.760;2023-09-19T12:14:50;99133.78;;;24.71;49.85
30021;BME280;16861;52.294;7.760;2023-09-19T12:17:17;99138.00;;;25.09;49.68
30021;BME280;16861;52.294;7.760;2023-09-19T12:19:51;99118.03;;;25.32;47.57
30021;BME280;16861;52.294;7.760;2023-09-19T12:22:18;99135.03;;;25.40;46.81
30021;BME280;16861;52.294;7.760;2023-09-19T12:24:47;99139.16;;;25.35;46.25
30021;BME280;16861;52.294;7.760;2023-09-19T12:27:15;99119.25;;;25.23;45.81
30021;BME280;16861;52.294;7.760;2023-09-19T12:32:10;99125.69;;;24.93;45.64
30021;BME280;16861;52.294;7.760;2023-09-19T12:34:37;99126.41;;;24.80;46.54
30021;BME280;16861;52.294;7.760;2023-09-19T12:37:13;99114.53;;;24.68;45.93
30021;BME280;16861;52.294;7.760;2023-09-19T12:40:03;99123.97;;;24.57;45.36
30021;BME280;16861;52.294;7.760;2023-09-19T12:42:41;99114.59;;;24.53;47.27
30021;BME280;16861;52.294;7.760;2023-09-19T12:45:09;99122.63;;;24.46;47.08
30021;BME280;16861;52.294;7.760;2023-09-19T12:47:37;99111.63;;;24.41;46.62
30021;BME280;16861;52.294;7.760;2023-09-19T12:52:38;99121.88;;;24.30;45.68
30021;BME280;16861;52.294;7.760;2023-09-19T12:55:06;99095.56;;;24.26;46.16
30021;BME280;16861;52.294;7.760;2023-09-19T12:57:37;99107.50;;;24.16;46.33
30021;BME280;16861;52.294;7.760;2023-09-19T13:00:06;99118.53;;;24.06;47.00
30021;BME280;16861;52.294;7.760;2023-09-19T13:02:33;99118.03;;;23.96;46.42
30021;BME280;16861;52.294;7.760;2023-09-19T13:05:00;99123.03;;;23.84;47.19
30021;BME280;16861;52.294;7.760;2023-09-19T13:07:43;99120.81;;;23.66;46.27
30021;BME280;16861;52.294;7.760;2023-09-19T13:10:11;99117.56;;;23.55;46.96
30021;BME280;16861;52.294;7.760;2023-09-19T13:12:42;99121.31;;;23.39;46.89
30021;BME280;16861;52.294;7.760;2023-09-19T13:15:15;99115.91;;;23.24;46.93
30021;BME280;16861;52.294;7.760;2023-09-19T13:17:47;99124.81;;;23.10;47.08
30021;BME280;16861;52.294;7.760;2023-09-19T13:22:54;99112.00;;;22.82;47.93
30021;BME280;16861;52.294;7.760;2023-09-19T13:25:25;99114.13;;;22.71;48.33
30021;BME280;16861;52.294;7.760;2023-09-19T13:27:56;99127.09;;;22.68;48.67
30021;BME280;16861;52.294;7.760;2023-09-19T13:30:25;99105.34;;;22.77;50.98
30021;BME280;16861;52.294;7.760;2023-09-19T13:33:03;99112.03;;;23.12;52.23
30021;BME280;16861;52.294;7.760;2023-09-19T13:35:31;99114.50;;;23.59;51.16
30021;BME280;16861;52.294;7.760;2023-09-19T13:37:59;99108.94;;;23.97;49.90
30021;BME280;16861;52.294;7.760;2023-09-19T13:40:27;99110.44;;;24.22;48.77
30021;BME280;16861;52.294;7.760;2023-09-19T13:42:57;99101.81;;;24.33;47.56
30021;BME280;16861;52.294;7.760;2023-09-19T13:45:23;99089.44;;;24.39;47.89
30021;BME280;16861;52.294;7.760;2023-09-19T13:47:51;99099.03;;;24.48;48.47
30021;BME280;16861;52.294;7.760;2023-09-19T13:50:17;99092.94;;;24.61;48.48
30021;BME280;16861;52.294;7.760;2023-09-19T13:52:50;99089.31;;;24.76;47.43
30021;BME280;16861;52.294;7.760;2023-09-19T13:55:20;99103.34;;;24.93;47.69
30021;BME280;16861;52.294;7.760;2023-09-19T13:57:48;99097.00;;;25.14;47.64
30021;BME280;16861;52.294;7.760;2023-09-19T14:00:21;99097.56;;;25.38;47.36
30021;BME280;16861;52.294;7.760;2023-09-19T14:02:48;99111.75;;;25.60;46.51
30021;BME280;16861;52.294;7.760;2023-09-19T14:05:15;99104.34;;;25.76;45.88
30021;BME280;16861;52.294;7.760;2023-09-19T14:07:43;99102.25;;;25.85;45.62
30021;BME280;16861;52.294;7.760;2023-09-19T14:10:10;99099.75;;;25.83;44.52
30021;BME280;16861;52.294;7.760;2023-09-19T14:12:38;99096.44;;;25.74;44.18
30021;BME280;16861;52.294;7.760;2023-09-19T14:15:08;99099.69;;;25.56;44.12